EWG7C EDDH-LEPA
Flight info
| Callsign | EWG7C |
|---|---|
| Flight time | N/A |
| Altitude | 37000 |
| Route | IDEKO7G IDEKO N850 XAROL DCT BOMBI DCT GIGET DCT ABUKA DCT KRH DCT NATOR DCT LUTIX DCT BENOT DCT NEMOS DCT GEVEA DCT INCUS DCT BALSI DCT RETNO DCT TUPOX DCT MTG DCT DIVKO DCT VATIR N852 VERSO L129 LUNIK |
| Aircraft | A321/M-SDE3FGHIRWY/LB1 |
Departure
| Time | 2026-04-25 13:28 |
|---|---|
| Airport | Hamburg Helmut Schmidt Airport (EDDH) |
Arrival
| Time | N/A |
|---|---|
| Airport | Palma de Mallorca Airport (LEPA) |
| Time | Latitude | Longitude | Altitude | Speed | Heading |
|---|---|---|---|---|---|
| 2026-04-25 12:55 | 53.62843 | 10.00212 | 46 ft | 0 kts | 62° |
| 2026-04-25 12:56 | 53.62842 | 10.00210 | 46 ft | 0 kts | 62° |
| 2026-04-25 12:58 | 53.62842 | 10.00209 | 46 ft | 0 kts | 62° |
| 2026-04-25 13:04 | 53.62842 | 10.00208 | 49 ft | 0 kts | 62° |
| 2026-04-25 13:05 | 53.62841 | 10.00208 | 49 ft | 0 kts | 62° |
| 2026-04-25 13:10 | 53.62841 | 10.00207 | 49 ft | 0 kts | 62° |
| 2026-04-25 13:17 | 53.62841 | 10.00206 | 49 ft | 0 kts | 62° |
| 2026-04-25 13:20 | 53.62839 | 10.00201 | 47 ft | 3 kts | 62° |
| 2026-04-25 13:21 | 53.62827 | 10.00162 | 46 ft | 3 kts | 62° |
| 2026-04-25 13:21 | 53.62816 | 10.00131 | 47 ft | 4 kts | 37° |
| 2026-04-25 13:21 | 53.62794 | 10.00119 | 47 ft | 4 kts | 345° |
| 2026-04-25 13:21 | 53.62771 | 10.00136 | 48 ft | 4 kts | 333° |
| 2026-04-25 13:22 | 53.62764 | 10.00142 | 45 ft | 2 kts | 333° |
| 2026-04-25 13:23 | 53.62763 | 10.00142 | 45 ft | 0 kts | 333° |
| 2026-04-25 13:26 | 53.62772 | 10.00135 | 46 ft | 3 kts | 333° |
| 2026-04-25 13:26 | 53.62796 | 10.00114 | 49 ft | 5 kts | 332° |
| 2026-04-25 13:26 | 53.62820 | 10.00092 | 49 ft | 7 kts | 330° |
| 2026-04-25 13:26 | 53.62854 | 10.00030 | 49 ft | 8 kts | 289° |
| 2026-04-25 13:27 | 53.62838 | 9.99931 | 44 ft | 11 kts | 246° |
| 2026-04-25 13:27 | 53.62812 | 9.99812 | 45 ft | 8 kts | 278° |
| 2026-04-25 13:27 | 53.62858 | 9.99753 | 44 ft | 10 kts | 332° |
| 2026-04-25 13:27 | 53.62964 | 9.99657 | 45 ft | 42 kts | 331° |
| 2026-04-25 13:28 | 53.63477 | 9.99213 | 47 ft | 120 kts | 333° |
| 2026-04-25 13:28 | 53.64052 | 9.98705 | 86 ft | 158 kts | 333° |
| 2026-04-25 13:28 | 53.65383 | 9.97585 | 1174 ft | 161 kts | 328° |
| 2026-04-25 13:28 | 53.66401 | 9.96734 | 1988 ft | 166 kts | 327° |
| 2026-04-25 13:29 | 53.67439 | 9.95841 | 2702 ft | 169 kts | 326° |
| 2026-04-25 13:29 | 53.68539 | 9.94867 | 3188 ft | 188 kts | 327° |
| 2026-04-25 13:29 | 53.69744 | 9.93799 | 3725 ft | 201 kts | 327° |
| 2026-04-25 13:30 | 53.71588 | 9.90752 | 5429 ft | 191 kts | 281° |
| 2026-04-25 13:30 | 53.71384 | 9.88395 | 5818 ft | 218 kts | 261° |
| 2026-04-25 13:30 | 53.70902 | 9.85818 | 6295 ft | 239 kts | 258° |
| 2026-04-25 13:31 | 53.69775 | 9.80429 | 7916 ft | 246 kts | 257° |
| 2026-04-25 13:31 | 53.69201 | 9.77683 | 8753 ft | 249 kts | 258° |
| 2026-04-25 13:31 | 53.68631 | 9.74913 | 9614 ft | 251 kts | 258° |
| 2026-04-25 13:31 | 53.68064 | 9.72106 | 10390 ft | 256 kts | 259° |
| 2026-04-25 13:32 | 53.67481 | 9.69137 | 10682 ft | 278 kts | 259° |
| 2026-04-25 13:32 | 53.66856 | 9.65931 | 11068 ft | 293 kts | 258° |
| 2026-04-25 13:32 | 53.66089 | 9.62687 | 11722 ft | 306 kts | 248° |
| 2026-04-25 13:32 | 53.64724 | 9.59822 | 12437 ft | 324 kts | 230° |
| 2026-04-25 13:33 | 53.62749 | 9.57776 | 13144 ft | 346 kts | 210° |
| 2026-04-25 13:33 | 53.60367 | 9.56909 | 13798 ft | 362 kts | 194° |
| 2026-04-25 13:33 | 53.57818 | 9.56422 | 14486 ft | 365 kts | 194° |
| 2026-04-25 13:33 | 53.56145 | 9.56109 | 14911 ft | 367 kts | 194° |
| 2026-04-25 13:34 | 53.52760 | 9.55468 | 15749 ft | 371 kts | 194° |
| 2026-04-25 13:34 | 53.50177 | 9.54965 | 16377 ft | 375 kts | 194° |
| 2026-04-25 13:34 | 53.47574 | 9.54451 | 17004 ft | 379 kts | 194° |
| 2026-04-25 13:34 | 53.44943 | 9.53926 | 17616 ft | 382 kts | 194° |
| 2026-04-25 13:35 | 53.42289 | 9.53397 | 18220 ft | 386 kts | 194° |
| 2026-04-25 13:35 | 53.39605 | 9.52867 | 18749 ft | 390 kts | 194° |
| 2026-04-25 13:35 | 53.36904 | 9.52339 | 19279 ft | 393 kts | 194° |
| 2026-04-25 13:35 | 53.34170 | 9.51806 | 19791 ft | 396 kts | 193° |
| 2026-04-25 13:36 | 53.31424 | 9.51272 | 20335 ft | 399 kts | 193° |
| 2026-04-25 13:36 | 53.28658 | 9.50740 | 20863 ft | 402 kts | 193° |
| 2026-04-25 13:36 | 53.25869 | 9.50199 | 21374 ft | 405 kts | 193° |
| 2026-04-25 13:36 | 53.23060 | 9.49647 | 21882 ft | 408 kts | 193° |
| 2026-04-25 13:37 | 53.20227 | 9.49089 | 22375 ft | 411 kts | 193° |
| 2026-04-25 13:37 | 53.17381 | 9.48530 | 22866 ft | 414 kts | 193° |
| 2026-04-25 13:37 | 53.14503 | 9.47969 | 23352 ft | 417 kts | 193° |
| 2026-04-25 13:37 | 53.11609 | 9.47406 | 23800 ft | 420 kts | 193° |
| 2026-04-25 13:38 | 53.08698 | 9.46839 | 24195 ft | 423 kts | 193° |
| 2026-04-25 13:38 | 53.05755 | 9.46268 | 24590 ft | 426 kts | 193° |
| 2026-04-25 13:38 | 53.02802 | 9.45695 | 24981 ft | 429 kts | 193° |
| 2026-04-25 13:38 | 52.99862 | 9.45127 | 25370 ft | 432 kts | 193° |
| 2026-04-25 13:39 | 52.96877 | 9.44539 | 25761 ft | 434 kts | 193° |
| 2026-04-25 13:39 | 52.93867 | 9.43914 | 26155 ft | 437 kts | 193° |
| 2026-04-25 13:39 | 52.90849 | 9.43262 | 26539 ft | 439 kts | 194° |
| 2026-04-25 13:39 | 52.87804 | 9.42591 | 26892 ft | 442 kts | 194° |
| 2026-04-25 13:40 | 52.84743 | 9.41918 | 27274 ft | 445 kts | 194° |
| 2026-04-25 13:40 | 52.81658 | 9.41249 | 27650 ft | 448 kts | 193° |
| 2026-04-25 13:40 | 52.78558 | 9.40586 | 28019 ft | 451 kts | 193° |
| 2026-04-25 13:40 | 52.75435 | 9.39925 | 28385 ft | 454 kts | 193° |
| 2026-04-25 13:41 | 52.72294 | 9.39260 | 28745 ft | 457 kts | 193° |
| 2026-04-25 13:41 | 52.69135 | 9.38589 | 29104 ft | 459 kts | 193° |
| 2026-04-25 13:41 | 52.65951 | 9.37916 | 29461 ft | 462 kts | 193° |
| 2026-04-25 13:41 | 52.62753 | 9.37242 | 29793 ft | 465 kts | 193° |
| 2026-04-25 13:42 | 52.59538 | 9.36516 | 30143 ft | 467 kts | 194° |
| 2026-04-25 13:42 | 52.56322 | 9.35705 | 30450 ft | 469 kts | 195° |
| 2026-04-25 13:42 | 52.53100 | 9.34832 | 30753 ft | 471 kts | 196° |
| 2026-04-25 13:42 | 52.49853 | 9.33931 | 31046 ft | 473 kts | 196° |
| 2026-04-25 13:43 | 52.46599 | 9.33036 | 31330 ft | 475 kts | 196° |
| 2026-04-25 13:43 | 52.43340 | 9.32154 | 31602 ft | 477 kts | 195° |
| 2026-04-25 13:43 | 52.40047 | 9.31280 | 31864 ft | 479 kts | 195° |
| 2026-04-25 13:43 | 52.36744 | 9.30419 | 32119 ft | 480 kts | 195° |
| 2026-04-25 13:44 | 52.33447 | 9.29574 | 32498 ft | 479 kts | 195° |
| 2026-04-25 13:44 | 52.30158 | 9.28729 | 32870 ft | 479 kts | 195° |
| 2026-04-25 13:44 | 52.26863 | 9.27881 | 33222 ft | 478 kts | 195° |
| 2026-04-25 13:44 | 52.23578 | 9.27026 | 33567 ft | 477 kts | 195° |
| 2026-04-25 13:45 | 52.20286 | 9.26248 | 33926 ft | 478 kts | 193° |
| 2026-04-25 13:45 | 52.16975 | 9.25598 | 34255 ft | 479 kts | 192° |
| 2026-04-25 13:45 | 52.13664 | 9.25037 | 34544 ft | 478 kts | 191° |
| 2026-04-25 13:45 | 52.10356 | 9.24511 | 34908 ft | 476 kts | 191° |
| 2026-04-25 13:46 | 52.07112 | 9.23991 | 35248 ft | 474 kts | 191° |
| 2026-04-25 13:46 | 52.03839 | 9.23419 | 35577 ft | 471 kts | 192° |
| 2026-04-25 13:46 | 52.00602 | 9.22698 | 35904 ft | 469 kts | 194° |
| 2026-04-25 13:46 | 51.97380 | 9.21848 | 36232 ft | 467 kts | 195° |
| 2026-04-25 13:47 | 51.94192 | 9.20936 | 36545 ft | 465 kts | 195° |
| 2026-04-25 13:47 | 51.91010 | 9.20017 | 36831 ft | 464 kts | 195° |
| 2026-04-25 13:47 | 51.87832 | 9.19124 | 37063 ft | 464 kts | 194° |
| 2026-04-25 13:48 | 51.81477 | 9.17616 | 37110 ft | 460 kts | 192° |
| 2026-04-25 13:48 | 51.75133 | 9.16333 | 37111 ft | 459 kts | 192° |
| 2026-04-25 13:49 | 51.68805 | 9.15034 | 37087 ft | 458 kts | 193° |
| 2026-04-25 13:49 | 51.62499 | 9.13674 | 37118 ft | 457 kts | 192° |
| 2026-04-25 13:50 | 51.56200 | 9.12298 | 37122 ft | 457 kts | 192° |
| 2026-04-25 13:50 | 51.49901 | 9.10921 | 37124 ft | 456 kts | 194° |
| 2026-04-25 13:51 | 51.43687 | 9.09034 | 37119 ft | 454 kts | 197° |
| 2026-04-25 13:51 | 51.37536 | 9.06756 | 37124 ft | 453 kts | 198° |
| 2026-04-25 13:52 | 51.31379 | 9.04529 | 37127 ft | 454 kts | 196° |
| 2026-04-25 13:52 | 51.25109 | 9.02968 | 37129 ft | 457 kts | 191° |
| 2026-04-25 13:53 | 51.18772 | 9.01927 | 37107 ft | 457 kts | 190° |
| 2026-04-25 13:53 | 51.12450 | 9.00850 | 37123 ft | 456 kts | 191° |
| 2026-04-25 13:54 | 51.06157 | 8.99605 | 37128 ft | 455 kts | 192° |
| 2026-04-25 13:54 | 50.99917 | 8.98320 | 37129 ft | 455 kts | 192° |
| 2026-04-25 13:55 | 50.93633 | 8.97053 | 37119 ft | 454 kts | 191° |
| 2026-04-25 13:55 | 50.87361 | 8.95820 | 37124 ft | 454 kts | 191° |
| 2026-04-25 13:56 | 50.81089 | 8.94599 | 37121 ft | 454 kts | 191° |
| 2026-04-25 13:56 | 50.74825 | 8.93365 | 37123 ft | 454 kts | 191° |
| 2026-04-25 13:57 | 50.68554 | 8.92137 | 37122 ft | 454 kts | 191° |
| 2026-04-25 13:57 | 50.62280 | 8.90924 | 37119 ft | 454 kts | 191° |
| 2026-04-25 13:58 | 50.56008 | 8.89711 | 37122 ft | 453 kts | 191° |
| 2026-04-25 13:58 | 50.49788 | 8.88507 | 37109 ft | 453 kts | 191° |
| 2026-04-25 13:59 | 50.43479 | 8.87288 | 37123 ft | 453 kts | 191° |
| 2026-04-25 13:59 | 50.37255 | 8.86079 | 37125 ft | 453 kts | 191° |
| 2026-04-25 14:00 | 50.33070 | 8.85267 | 37129 ft | 453 kts | 191° |
| 2026-04-25 14:00 | 50.24732 | 8.83669 | 37121 ft | 453 kts | 191° |
| 2026-04-25 14:01 | 50.18464 | 8.82466 | 37127 ft | 453 kts | 191° |